Latest Weather Observations for Sheoaks

IDV60801

Issued at 11:32 am EST Thursday 1 September 2016 (issued every 30 minutes, with the page automatically refreshed every 10 minutes)

About weather observations | Map of weather stations | Latest weather observations for VIC | Other Formats
Station Details ID: 087168 Name: SHEOAKS Lat: -37.91 Lon: 144.13 Height: 236.7 m
Data from the previous 72 hours. | See also: Recent months at Sheoaks
Date/Time
EST
Temp
°C
App
Temp
°C
Dew
Point
°C
Rel
Hum
%
Delta-T
°C
Wind Press
QNH
hPa
Press
MSL
hPa
Rain since
9am
mm
Dir  Spd
km/h
Gust
km/h
Spd
kts
Gust
kts
01/11:30am 11.8 9.7 8.1 78 1.8 WSW 9 15 5 8 1017.8 1017.9 0.0
01/11:00am 11.3 9.2 8.3 82 1.5 SW 9 15 5 8 1017.9 1018.0 0.0
01/10:30am 11.7 9.9 8.0 78 1.8 W 7 13 4 7 1018.0 1018.1 0.0
01/10:00am 11.4 9.8 8.6 83 1.4 W 7 11 4 6 1018.1 1018.2 0.0
01/09:30am 12.0 10.4 8.7 80 1.7 WSW 7 11 4 6 1018.1 1018.4 0.0
01/09:00am 11.2 9.1 8.2 82 1.5 WSW 9 13 5 7 1018.2 1018.5 1.8
01/08:30am 11.1 10.3 9.7 91 0.7 WNW 4 7 2 4 1018.2 1018.5 1.8
01/08:00am 10.1 9.2 9.2 94 0.5 NNW 4 7 2 4 1018.1 1018.4 1.8
01/07:30am 9.4 7.4 8.8 96 0.3 WNW 9 11 5 6 1017.9 1018.2 1.8
01/07:00am 9.2 7.5 8.4 95 0.4 WNW 7 13 4 7 1017.8 1018.1 1.8
01/06:30am 9.2 7.5 8.4 95 0.4 WNW 7 11 4 6 1017.7 1018.0 1.8
01/06:00am 9.3 7.6 8.5 95 0.4 WNW 7 9 4 5 1017.5 1017.8 1.8
01/05:30am 9.7 8.1 8.9 95 0.4 W 7 13 4 7 1017.2 1017.5 1.8
01/05:00am 10.0 8.5 9.1 94 0.4 W 7 11 4 6 1017.3 1017.6 1.8
01/04:30am 10.2 8.4 9.3 94 0.5 WNW 9 13 5 7 1017.3 1017.6 1.8
01/04:00am 10.0 8.1 9.1 94 0.4 WNW 9 13 5 7 1017.1 1017.4 1.8
01/03:30am 9.6 8.0 8.8 95 0.4 NW 7 9 4 5 1017.1 1017.4 1.8
01/03:00am 9.5 8.0 8.6 94 0.4 NW 6 9 3 5 1017.0 1017.3 1.8
01/02:30am 9.9 8.5 9.0 94 0.4 NW 6 7 3 4 1017.0 1017.3 1.8
01/02:00am 10.3 8.9 9.4 94 0.5 NW 7 11 4 6 1017.2 1017.5 1.8
01/01:30am 10.4 8.6 9.5 94 0.5 WNW 9 13 5 7 1017.4 1017.7 1.8
01/01:00am 10.6 9.2 9.7 94 0.5 W 7 11 4 6 1017.5 1017.8 1.6
01/12:30am 10.5 9.3 9.4 93 0.6 WSW 6 9 3 5 1017.3 1017.6 1.6
01/12:00am 10.3 9.0 9.2 93 0.6 WNW 6 9 3 5 1017.1 1017.4 1.6
 
Date/Time
EST
Temp
°C
App
Temp
°C
Dew
Point
°C
Rel
Hum
%
Delta-T
°C
Wind Press
QNH
hPa
Press
MSL
hPa
Rain since
9am
mm
Dir  Spd
km/h
Gust
km/h
Spd
kts
Gust
kts
31/11:30pm 10.5 9.3 9.4 93 0.6 NW 6 7 3 4 1016.9 1017.2 1.6
31/11:00pm 10.8 9.6 9.6 92 0.6 NW 6 7 3 4 1017.0 1017.3 1.6
31/10:30pm 11.1 10.0 9.9 92 0.6 NW 6 11 3 6 1016.9 1017.2 1.6
31/10:00pm 11.2 9.6 10.1 93 0.6 WNW 9 13 5 7 1016.7 1017.0 1.6
31/09:30pm 11.1 9.1 10.2 94 0.5 WNW 11 15 6 8 1016.5 1016.8 1.6
31/09:00pm 11.1 9.5 10.2 94 0.5 WNW 9 13 5 7 1016.6 1016.9 1.6
31/08:30pm 11.4 9.0 10.1 92 0.7 W 13 19 7 10 1016.5 1016.8 1.6
31/08:00pm 12.8 10.9 8.9 77 2.0 WNW 9 13 5 7 1016.1 1016.4 0.0
31/07:30pm 12.8 10.4 8.7 76 2.1 WNW 11 17 6 9 1015.6 1015.9 0.0
31/07:00pm 12.7 10.7 8.6 76 2.1 WNW 9 15 5 8 1015.1 1015.4 0.0
31/06:30pm 12.7 10.6 8.2 74 2.3 WNW 9 15 5 8 1014.8 1015.1 0.0
31/06:00pm 12.9 10.8 8.2 73 2.4 WNW 9 17 5 9 1014.6 1014.9 0.0
31/05:30pm 13.1 8.8 8.0 71 2.5 WNW 20 32 11 17 1014.3 1014.6 0.0
31/05:00pm 13.8 9.9 7.3 65 3.2 W 17 28 9 15 1013.9 1014.2 0.0
31/04:30pm 14.3 9.9 6.4 59 3.9 WNW 19 30 10 16 1013.5 1013.8 0.0
31/04:00pm 14.9 10.2 7.7 62 3.6 W 22 33 12 18 1013.2 1013.5 0.0
31/03:30pm 15.0 9.1 7.3 60 3.8 W 28 41 15 22 1013.2 1013.5 0.0
31/03:00pm 15.1 9.6 7.4 60 3.9 W 26 39 14 21 1013.1 1013.4 0.0
31/02:30pm 14.2 8.8 7.9 66 3.2 W 26 46 14 25 1013.2 1013.5 0.0
31/02:00pm 15.1 10.9 8.3 64 3.5 WNW 20 33 11 18 1013.0 1013.3 0.0
31/01:30pm 15.0 10.4 8.0 63 3.5 WNW 22 37 12 20 1012.8 1013.1 0.0
31/01:00pm 14.3 9.8 8.7 69 2.9 WNW 22 37 12 20 1013.0 1013.3 0.0
31/12:30pm 15.1 11.0 8.8 66 3.2 WNW 20 32 11 17 1013.1 1013.4 0.0
31/12:00pm 14.4 10.4 8.4 67 3.1 WNW 19 26 10 14 1013.4 1013.7 0.0
31/11:30am 14.4 10.2 8.1 66 3.2 W 20 32 11 17 1013.5 1013.8 0.0
31/11:00am 14.6 10.4 8.1 65 3.3 WNW 20 33 11 18 1013.4 1013.7 0.0
31/10:30am 14.7 12.0 9.1 69 2.9 WNW 13 28 7 15 1013.4 1013.7 0.0
31/10:00am 14.2 10.9 9.4 73 2.5 WNW 17 26 9 14 1013.4 1013.7 0.0
31/09:30am 14.4 11.1 9.6 73 2.5 NW 17 30 9 16 1013.4 1013.7 0.0
31/09:00am 13.9 10.5 9.3 74 2.4 NW 17 28 9 15 1013.3 1013.6 0.0
31/08:30am 13.8 10.6 9.8 77 2.1 NW 17 28 9 15 1013.2 1013.5 0.0
31/08:00am 13.0 9.7 9.6 80 1.8 NW 17 28 9 15 1012.9 1013.2 0.0
31/07:30am 12.8 9.9 9.8 82 1.6 NW 15 28 8 15 1012.5 1012.8 0.0
31/07:00am 12.8 10.0 10.0 83 1.5 NNW 15 24 8 13 1012.1 1012.3 0.0
31/06:30am 12.8 10.1 10.2 84 1.4 NNW 15 24 8 13 1011.8 1012.0 0.0
31/06:00am 12.5 10.1 10.0 85 1.3 N 13 17 7 9 1011.2 1011.5 0.0
31/05:30am 12.4 10.4 10.1 86 1.2 NNW 11 17 6 9 1011.3 1011.6 0.0
31/05:00am 11.7 10.6 9.9 89 0.9 NW 6 11 3 6 1011.3 1011.6 0.0
31/04:30am 11.4 10.2 9.5 88 1.0 NW 6 7 3 4 1011.3 1011.6 0.0
31/04:00am 11.4 10.3 9.8 90 0.8 NNW 6 9 3 5 1011.1 1011.4 0.0
31/03:30am 11.3 10.1 9.4 88 1.0 SW 6 7 3 4 1011.4 1011.7 0.0
31/03:00am 11.9 11.5 9.8 87 1.1 WNW 2 6 1 3 1011.4 1011.7 0.0
31/02:30am 12.3 11.1 10.2 87 1.1 NW 7 13 4 7 1011.8 1012.0 0.0
31/02:00am 12.9 11.0 10.4 85 1.3 NNW 11 17 6 9 1012.1 1012.3 0.0
31/01:30am 13.2 10.2 10.6 84 1.4 NNW 17 24 9 13 1012.3 1012.5 0.0
31/01:00am 13.2 10.2 10.6 84 1.4 NNW 17 28 9 15 1012.3 1012.5 0.0
31/12:30am 13.1 9.6 10.3 83 1.5 N 19 28 10 15 1012.1 1012.3 0.0
31/12:00am 13.1 10.7 9.9 81 1.7 N 13 19 7 10 1012.4 1012.7 0.0
 
Date/Time
EST
Temp
°C
App
Temp
°C
Dew
Point
°C
Rel
Hum
%
Delta-T
°C
Wind Press
QNH
hPa
Press
MSL
hPa
Rain since
9am
mm
Dir  Spd
km/h
Gust
km/h
Spd
kts
Gust
kts
30/11:30pm 13.5 10.7 9.9 79 1.9 N 15 20 8 11 1012.6 1012.9 0.0
30/11:00pm 13.3 10.8 9.7 79 1.9 N 13 20 7 11 1012.9 1013.2 0.0
30/10:30pm 13.7 10.1 9.7 77 2.1 N 19 28 10 15 1012.8 1013.1 0.0
30/10:00pm 13.8 10.6 9.8 77 2.1 N 17 22 9 12 1013.1 1013.4 0.0
30/09:30pm 13.9 11.9 10.3 79 1.9 N 11 19 6 10 1013.3 1013.6 0.0
30/09:00pm 13.9 11.5 10.1 78 2.0 N 13 22 7 12 1013.4 1013.7 0.0
30/08:30pm 13.8 12.5 10.0 78 2.0 N 7 11 4 6 1013.3 1013.6 0.0
30/08:00pm 13.4 12.1 10.0 80 1.8 N 7 11 4 6 1013.4 1013.7 0.0
30/07:30pm 13.3 10.5 9.9 80 1.8 N 15 22 8 12 1013.1 1013.4 0.0
30/07:00pm 13.4 9.7 9.6 78 2.0 N 19 28 10 15 1013.0 1013.3 0.0
30/06:30pm 13.4 9.5 9.3 76 2.1 N 20 32 11 17 1013.0 1013.3 0.0
30/06:00pm 13.1 8.5 9.7 80 1.8 N 24 33 13 18 1013.0 1013.3 0.0
30/05:30pm 13.4 9.7 9.5 77 2.0 N 19 28 10 15 1012.9 1013.2 0.0
30/05:00pm 13.9 8.8 9.3 74 2.4 N 26 43 14 23 1012.6 1012.9 0.0
30/04:30pm 14.5 9.4 9.3 71 2.7 N 26 39 14 21 1012.9 1013.2 0.0
30/04:00pm 14.4 9.3 9.2 71 2.7 N 26 35 14 19 1013.0 1013.3 0.0
30/03:30pm 14.4 9.6 8.8 69 2.9 N 24 35 13 19 1013.2 1013.5 0.0
30/03:00pm 14.6 7.9 8.3 66 3.2 N 33 46 18 25 1013.7 1014.0 0.0
30/02:30pm 15.2 9.5 8.4 64 3.5 N 28 41 15 22 1014.2 1014.5 0.0
30/02:07pm 15.2 9.5 8.2 63 3.6 NNE 28 48 15 26 1014.2 1014.5 0.0
30/02:00pm 15.1 10.2 8.6 65 3.3 NNE 24 39 13 21 1014.4 1014.7 0.0
30/01:30pm 15.5 10.3 8.7 64 3.5 NNE 26 41 14 22 1014.7 1015.0 0.0
30/01:00pm 14.7 10.3 8.9 68 3.0 N 22 32 12 17 1015.3 1015.6 0.0
30/12:30pm 14.1 10.1 8.9 71 2.7 NNE 20 32 11 17 1016.0 1016.3 0.0
30/12:00pm 13.4 10.5 9.5 77 2.0 NE 15 24 8 13 1016.6 1016.9 0.0
30/11:30am 12.4 10.5 8.9 79 1.8 E 9 13 5 7 1017.2 1017.5 0.0
30/11:00am 12.8 9.9 8.3 74 2.3 NNE 13 20 7 11 1018.1 1018.4 0.0
30/10:30am 12.2 10.0 7.7 74 2.2 NE 9 13 5 7 1018.4 1018.7 0.0
30/10:00am 12.6 8.9 6.4 66 3.0 N 15 22 8 12 1018.6 1018.9 0.0
30/09:30am 12.7 7.1 5.6 62 3.4 N 24 41 13 22 1018.2 1018.5 0.0
30/09:00am 12.6 7.4 5.5 62 3.3 N 22 30 12 16 1018.6 1018.9 0.0
30/08:30am 12.4 7.2 5.3 62 3.3 N 22 30 12 16 1018.8 1019.1 0.0
30/08:00am 12.1 6.9 5.5 64 3.1 N 22 32 12 17 1018.8 1019.1 0.0
30/07:30am 12.2 7.4 5.6 64 3.1 N 20 28 11 15 1018.9 1019.2 0.0
30/07:00am 12.0 9.0 5.9 66 2.9 NNE 11 17 6 9 1019.4 1019.8 0.0
30/06:30am 10.9 8.6 5.7 70 2.4 N 7 11 4 6 1019.6 1020.0 0.0
30/06:00am 8.9 6.7 5.1 77 1.7 N 6 7 3 4 1019.6 1020.0 0.0
30/05:30am 8.8 7.0 5.4 79 1.6 NNE 4 6 2 3 1019.7 1020.1 0.0
30/05:00am 9.2 6.9 5.0 75 1.9 ESE 6 6 3 3 1019.1 1019.4 0.0
30/04:30am 9.2 7.4 5.2 76 1.8 ENE 4 6 2 3 1019.5 1019.9 0.0
30/04:00am 9.8 6.9 4.6 70 2.3 ESE 9 13 5 7 1018.8 1019.1 0.0
30/03:30am 10.7 8.2 4.6 66 2.8 E 7 9 4 5 1019.4 1019.8 0.0
30/03:00am 10.0 7.4 4.4 68 2.5 NE 7 11 4 6 1019.9 1020.3 0.0
30/02:30am 10.0 7.5 3.7 65 2.8 NE 6 6 3 3 1020.1 1020.5 0.0
30/02:00am 9.7 7.2 3.9 67 2.6 NE 6 7 3 4 1020.2 1020.6 0.0
30/01:30am 9.8 7.1 3.8 66 2.7 ENE 7 7 4 4 1020.3 1020.7 0.0
30/01:00am 10.5 8.0 3.5 62 3.1 NE 6 7 3 4 1020.6 1020.9 0.0
30/12:30am 10.5 7.4 3.8 63 3.0 NNE 9 13 5 7 1020.9 1021.2 0.0
30/12:00am 10.9 7.5 3.9 62 3.1 NNE 11 15 6 8 1021.0 1021.3 0.0
 
Date/Time
EST
Temp
°C
App
Temp
°C
Dew
Point
°C
Rel
Hum
%
Delta-T
°C
Wind Press
QNH
hPa
Press
MSL
hPa
Rain since
9am
mm
Dir  Spd
km/h
Gust
km/h
Spd
kts
Gust
kts
29/11:30pm 11.4 7.7 4.4 62 3.2 NE 13 19 7 10 1021.0 1021.3 0.0
29/11:00pm 11.7 8.0 4.7 62 3.2 NNE 13 19 7 10 1021.4 1021.7 0.0
29/10:30pm 12.4 8.3 4.6 59 3.6 NNE 15 24 8 13 1021.7 1022.0 0.0
29/10:00pm 12.2 8.3 5.4 63 3.2 NNE 15 20 8 11 1021.8 1022.1 0.0
29/09:30pm 11.9 8.9 5.8 66 2.9 NNE 11 17 6 9 1021.9 1022.2 0.0
29/09:00pm 12.2 8.7 5.6 64 3.1 NNE 13 17 7 9 1021.8 1022.1 0.0
29/08:30pm 12.1 8.6 5.5 64 3.1 NNE 13 19 7 10 1021.7 1022.0 0.0
29/08:00pm 11.4 8.7 5.7 68 2.7 NE 9 13 5 7 1021.7 1022.0 0.0
29/07:30pm 11.8 8.4 5.9 67 2.8 NE 13 17 7 9 1021.7 1022.0 0.0
29/07:00pm 13.1 9.3 5.8 61 3.5 NNE 15 19 8 10 1021.5 1021.8 0.0
29/06:30pm 13.5 9.6 5.4 58 3.8 NNE 15 22 8 12 1021.0 1021.3 0.0
29/06:00pm 13.9 10.0 5.3 56 4.1 NE 15 22 8 12 1020.7 1021.0 0.0
29/05:30pm 15.3 10.9 5.0 50 4.9 NE 17 24 9 13 1020.9 1021.2 0.0
29/05:00pm 16.4 11.6 4.8 46 5.5 NNE 19 26 10 14 1020.6 1020.9 0.0
29/04:30pm 17.1 12.0 4.1 42 6.2 NNE 20 28 11 15 1020.7 1021.0 0.0
29/04:00pm 17.5 12.9 3.8 40 6.5 N 17 26 9 14 1020.8 1021.1 0.0
29/03:30pm 17.5 12.9 3.8 40 6.5 N 17 24 9 13 1021.0 1021.3 0.0
29/03:00pm 18.1 13.1 3.6 38 6.8 NNE 19 28 10 15 1021.0 1021.3 0.0
29/02:30pm 17.7 13.1 3.9 40 6.6 NNE 17 26 9 14 1020.9 1021.2 0.0
29/02:00pm 17.7 13.6 4.6 42 6.3 N 15 24 8 13 1021.2 1021.5 0.0
29/01:30pm 17.8 12.4 2.5 36 7.1 N 20 33 11 18 1021.5 1021.8 0.0
29/01:00pm 17.5 12.3 3.4 39 6.6 N 20 28 11 15 1021.8 1022.1 0.0
29/12:30pm 16.9 12.2 3.2 40 6.4 N 17 22 9 12 1022.1 1022.4 0.0
29/12:00pm 15.9 10.8 4.0 45 5.6 N 20 30 11 16 1022.5 1022.8 0.0

Other Formats:

Comma delimited format used in spreadsheet applications
http://www.bom.gov.au/fwo/IDV60801/IDV60801.94863.axf

JavaScript Object Notation format (JSON) in row-major order
http://www.bom.gov.au/fwo/IDV60801/IDV60801.94863.json